Cochise — WDD8952 — position and weather

sailwx.info

Track history (hours):
 
Tides and Currents Weather Stations Pressure Air Temp Water Temp Dewpoint Dewpoint Depression Visibility Wind Speed Wind Dir Waves Ship Positions

Cochise

Owner: Sause Bros, Coos Bay, OR. More information available from US FCC via Universal Licensing System and Coast Guard Vessel Documentation Center.

Last reported at 2015-Aug-30 17:33 UTC. Time now 2015-Aug-30 18:11 UTC.
Position N 37°46' W 122°23'.

Length 32 m; draft 4.8 m.

Type: Towing. MMSI: 367304990.

Date/timePositionNaut miles runAvg speedWind from/ knotsBaromVisibWave heightAir tempDewpointWater temp
2015-Aug-30 17:33N 37°46' W 122°23'0 0.0
2015-Aug-30 16:33N 37°46' W 122°23'0 0.0
2015-Aug-30 15:33N 37°46' W 122°23'0 0.0
2015-Aug-30 14:33N 37°46' W 122°23'1 1.0
2015-Aug-30 13:34N 37°47' W 122°23'9 8.9
2015-Aug-30 12:34N 37°56' W 122°26'10 9.9
2015-Aug-30 11:34N 38°03' W 122°17'7 0.4
2015-Aug-29 17:33N 38°02' W 122°08'6 6.1
2015-Aug-29 16:33N 38°04' W 122°16'8 7.6
2015-Aug-29 15:33N 38°00' W 122°24'6 6.2
2015-Aug-29 14:34N 37°54' W 122°23'1 1.1
2015-Aug-29 13:33N 37°55' W 122°22'0 0.0
2015-Aug-29 12:32N 37°55' W 122°22'0 0.0
2015-Aug-29 11:32N 37°55' W 122°22'0 0.0
2015-Aug-29 10:32N 37°55' W 122°22'0 0.0
2015-Aug-29 09:32N 37°55' W 122°22'0 0.0
2015-Aug-29 08:32N 37°55' W 122°22'0 0.0
2015-Aug-29 07:32N 37°55' W 122°22'0 0.0
2015-Aug-29 06:32N 37°55' W 122°22'0 0.0
2015-Aug-29 05:32N 37°55' W 122°22'0 0.0
2015-Aug-29 04:32N 37°55' W 122°22'0 0.0
2015-Aug-29 03:33N 37°55' W 122°22'0 0.0
2015-Aug-29 02:34N 37°55' W 122°22'0 0.0
2015-Aug-29 01:34N 37°55' W 122°22'0 0.0
2015-Aug-29 00:34N 37°55' W 122°22'0 0.0
2015-Aug-28 23:33N 37°55' W 122°22'0 0.0
2015-Aug-28 22:34N 37°55' W 122°22'0 0.0
2015-Aug-28 21:34N 37°55' W 122°22'0 0.0
2015-Aug-28 20:34N 37°55' W 122°22'0 0.0
2015-Aug-28 19:34N 37°55' W 122°22'0 0.0
2015-Aug-28 18:34N 37°55' W 122°22'0 0.0
2015-Aug-28 17:33N 37°55' W 122°22'0 0.0
2015-Aug-28 16:33N 37°55' W 122°22'0 0.0
2015-Aug-28 15:34N 37°55' W 122°22'0 0.0
2015-Aug-28 14:34N 37°55' W 122°22'0 0.0
2015-Aug-28 13:33N 37°55' W 122°22'0 0.0
2015-Aug-28 12:34N 37°55' W 122°22'0 0.0
2015-Aug-28 11:33N 37°55' W 122°22'0 0.0
2015-Aug-28 10:33N 37°55' W 122°22'0 0.0
2015-Aug-28 09:34N 37°55' W 122°22'0 0.0
2015-Aug-28 08:34N 37°55' W 122°22'0 0.0
2015-Aug-28 07:34N 37°55' W 122°22'0 0.0
2015-Aug-28 06:33N 37°55' W 122°22'0 0.0
2015-Aug-28 05:34N 37°55' W 122°22'0 0.0
2015-Aug-28 04:34N 37°55' W 122°22'0 0.0
2015-Aug-28 03:33N 37°55' W 122°22'0 0.0
2015-Aug-28 02:33N 37°55' W 122°22'0 0.0
2015-Aug-28 01:34N 37°55' W 122°22'0 0.0
2015-Aug-28 00:34N 37°55' W 122°22'0 0.0
2015-Aug-27 23:34N 37°55' W 122°22'0 0.0
2015-Aug-27 22:34N 37°55' W 122°22'1 0.7
2015-Aug-27 21:34N 37°54' W 122°22'3 2.9
2015-Aug-27 20:31N 37°55' W 122°26'0 0.1
2015-Aug-27 19:32N 37°55' W 122°26'1 0.8
2015-Aug-27 18:31N 37°55' W 122°25'1 0.7
2015-Aug-27 17:31N 37°55' W 122°26'1 0.9
2015-Aug-27 16:33N 37°55' W 122°25'0 0.0
2015-Aug-27 15:33N 37°55' W 122°25'0 0.0
2015-Aug-27 14:33N 37°55' W 122°25'0 0.0
2015-Aug-27 13:33N 37°55' W 122°25'0 0.0
2015-Aug-27 12:33N 37°55' W 122°25'0 0.0
2015-Aug-27 11:33N 37°55' W 122°25'0 0.0
2015-Aug-27 10:33N 37°55' W 122°25'0 0.0
2015-Aug-27 09:33N 37°55' W 122°25'0 0.0
2015-Aug-27 08:33N 37°55' W 122°25'0 0.0
2015-Aug-27 07:33N 37°55' W 122°25'0 0.0
2015-Aug-27 06:33N 37°55' W 122°25'0 0.0
2015-Aug-27 05:30N 37°55' W 122°25'0 0.0
2015-Aug-27 04:33N 37°55' W 122°25'0 0.0
2015-Aug-27 03:33N 37°55' W 122°25'0 0.0
2015-Aug-27 02:30N 37°55' W 122°25'0 0.0
2015-Aug-27 01:33N 37°55' W 122°25'0 0.0
2015-Aug-27 00:33N 37°55' W 122°25'0 0.0
2015-Aug-26 23:33N 37°55' W 122°25'0 0.0
2015-Aug-26 22:27N 37°55' W 122°25'0 0.0
2015-Aug-26 21:33N 37°55' W 122°25'0 0.0
2015-Aug-26 20:33N 37°55' W 122°25'0 0.0
2015-Aug-26 19:33N 37°55' W 122°25'1 1.2
2015-Aug-26 18:33N 37°55' W 122°26'0 0.1
2015-Aug-26 17:29N 37°55' W 122°26'0 0.0
2015-Aug-26 16:32N 37°55' W 122°26'0 0.0
2015-Aug-26 15:32N 37°55' W 122°26'0 0.0
2015-Aug-26 13:32N 37°55' W 122°26'0 0.1
2015-Aug-26 12:32N 37°55' W 122°26'0 0.0
2015-Aug-26 11:32N 37°55' W 122°26'0 0.0
2015-Aug-26 10:32N 37°55' W 122°26'0 0.0
2015-Aug-26 09:32N 37°55' W 122°26'6 6.2
2015-Aug-26 08:33N 38°01' W 122°23'1110.4
2015-Aug-26 07:32N 38°02' W 122°10'3 3.2
2015-Aug-26 06:33N 38°03' W 122°06'0 0.0
2015-Aug-26 05:30N 38°03' W 122°06'0 0.0
2015-Aug-26 04:30N 38°03' W 122°06'0 0.0
2015-Aug-26 03:24N 38°03' W 122°06'0 0.0
2015-Aug-25 23:30N 38°03' W 122°06'0 0.0
2015-Aug-25 13:30N 38°03' W 122°06'0 0.0
2015-Aug-25 12:27N 38°03' W 122°06'0 0.0
2015-Aug-25 09:21N 38°03' W 122°06'0 0.0
2015-Aug-25 08:27N 38°03' W 122°06'0 0.0
2015-Aug-25 07:24N 38°03' W 122°06'0 0.4
2015-Aug-25 06:33N 38°03' W 122°07'4 3.6
2015-Aug-25 05:33N 38°03' W 122°11'7 7.2
2015-Aug-25 04:33N 38°03' W 122°20'7 6.9
2015-Aug-25 03:33N 37°57' W 122°26'2 2.1
2015-Aug-25 02:33N 37°55' W 122°26'0 0.0
2015-Aug-25 01:33N 37°55' W 122°26'0 0.0
2015-Aug-25 00:33N 37°55' W 122°26'0 0.0
2015-Aug-24 23:33N 37°55' W 122°26'0 0.0
2015-Aug-24 22:33N 37°55' W 122°26'0 0.1
2015-Aug-24 21:33N 37°55' W 122°26'0 0.0
2015-Aug-24 20:33N 37°55' W 122°26'0 0.0
2015-Aug-24 19:33N 37°55' W 122°26'0 0.1
2015-Aug-24 18:33N 37°55' W 122°26'0 0.0
2015-Aug-24 17:33N 37°55' W 122°26'0 0.0
2015-Aug-24 16:33N 37°55' W 122°26'0 0.0
2015-Aug-24 15:33N 37°55' W 122°26'0 0.0
2015-Aug-24 14:33N 37°55' W 122°26'0 0.0
2015-Aug-24 13:30N 37°55' W 122°26'0 0.0
2015-Aug-24 12:33N 37°55' W 122°26'0 0.0
2015-Aug-24 11:33N 37°55' W 122°26'0 0.0
2015-Aug-24 10:33N 37°55' W 122°26'0 0.0
2015-Aug-24 09:33N 37°55' W 122°26'0 0.0
2015-Aug-24 08:33N 37°55' W 122°26'0 0.0
2015-Aug-24 07:33N 37°55' W 122°26'0 0.0
2015-Aug-24 06:33N 37°55' W 122°26'0 0.1
2015-Aug-24 05:33N 37°55' W 122°26'0 0.0
2015-Aug-24 04:33N 37°55' W 122°26'0 0.1
2015-Aug-24 03:33N 37°55' W 122°26'0 0.0
2015-Aug-24 02:33N 37°55' W 122°26'0 0.0
2015-Aug-24 01:33N 37°55' W 122°26'0 0.0
2015-Aug-24 00:33N 37°55' W 122°26'0 0.0
2015-Aug-23 23:33N 37°55' W 122°26'0 0.0
2015-Aug-23 22:33N 37°55' W 122°26'0 0.0
2015-Aug-23 21:33N 37°55' W 122°26'0 0.0
2015-Aug-23 20:30N 37°55' W 122°26'0 0.1
2015-Aug-23 19:33N 37°55' W 122°26'0 0.0
2015-Aug-23 18:30N 37°55' W 122°26'0 0.0
2015-Aug-23 17:33N 37°55' W 122°26'0 0.0
2015-Aug-23 16:30N 37°55' W 122°26'0 0.0
2015-Aug-23 15:33N 37°55' W 122°26'1 1.2
2015-Aug-23 14:33N 37°55' W 122°25'0 0.3
2015-Aug-23 13:33N 37°55' W 122°25'0 0.0
2015-Aug-23 12:33N 37°55' W 122°25'0 0.0
2015-Aug-23 11:32N 37°55' W 122°25'0 0.0
2015-Aug-23 10:33N 37°55' W 122°25'0 0.0
2015-Aug-23 09:26N 37°55' W 122°25'0 0.0
2015-Aug-23 08:32N 37°55' W 122°25'0 0.0
2015-Aug-23 07:32N 37°55' W 122°25'0 0.0
2015-Aug-23 06:32N 37°55' W 122°25'0 0.0
2015-Aug-23 05:33N 37°55' W 122°25'0 0.0
2015-Aug-23 04:29N 37°55' W 122°25'0 0.0
2015-Aug-23 03:32N 37°55' W 122°25'0 0.0
2015-Aug-23 02:32N 37°55' W 122°25'0 0.0
2015-Aug-23 01:32N 37°55' W 122°25'0 0.0
2015-Aug-23 00:23N 37°55' W 122°25'0 0.0
2015-Aug-22 23:32N 37°55' W 122°25'0 0.0
2015-Aug-22 22:23N 37°55' W 122°25'0 0.0
2015-Aug-22 21:32N 37°55' W 122°25'0 0.3
2015-Aug-22 20:33N 37°55' W 122°25'6 5.7
2015-Aug-22 19:33N 37°50' W 122°23'3 3.4
2015-Aug-22 18:33N 37°46' W 122°23'0 0.0
2015-Aug-22 17:32N 37°46' W 122°23'0 0.0
2015-Aug-22 16:32N 37°46' W 122°23'0 0.0
2015-Aug-22 15:32N 37°46' W 122°23'0 0.0
2015-Aug-22 14:32N 37°46' W 122°23'0 0.0
2015-Aug-22 13:32N 37°46' W 122°23'0 0.0
2015-Aug-22 12:32N 37°46' W 122°23'0 0.0
2015-Aug-22 11:32N 37°46' W 122°23'0 0.0
2015-Aug-22 10:32N 37°46' W 122°23'0 0.0
2015-Aug-22 09:32N 37°46' W 122°23'0 0.0
2015-Aug-22 08:32N 37°46' W 122°23'0 0.0
2015-Aug-22 07:32N 37°46' W 122°23'0 0.0
2015-Aug-22 06:32N 37°46' W 122°23'0 0.0
2015-Aug-22 05:32N 37°46' W 122°23'0 0.0
2015-Aug-22 04:32N 37°46' W 122°23'0 0.0
2015-Aug-22 03:32N 37°46' W 122°23'0 0.0
2015-Aug-22 02:32N 37°46' W 122°23'0 0.0
2015-Aug-22 01:32N 37°46' W 122°23'0 0.0
2015-Aug-22 00:31N 37°46' W 122°23'0 0.0
2015-Aug-21 23:31N 37°46' W 122°23'0 0.0
2015-Aug-21 22:32N 37°46' W 122°23'0 0.0
2015-Aug-21 21:32N 37°46' W 122°23'0 0.0
2015-Aug-21 20:32N 37°46' W 122°23'0 0.0
2015-Aug-21 19:31N 37°46' W 122°23'0 0.0
2015-Aug-21 18:31N 37°46' W 122°23'0 0.0
2015-Aug-21 17:31N 37°46' W 122°23'0 0.0
2015-Aug-21 16:32N 37°46' W 122°23'0 0.0
2015-Aug-21 15:32N 37°46' W 122°23'0 0.0
2015-Aug-21 14:34N 37°46' W 122°23'4 4.0
2015-Aug-21 13:34N 37°50' W 122°24'10 9.7
2015-Aug-21 12:33N 38°00' W 122°24'9 9.3
2015-Aug-21 11:34N 38°04' W 122°14'  
Track history (hours):
 
Tides and Currents Weather Stations Pressure Air Temp Water Temp Dewpoint Dewpoint Depression Visibility Wind Speed Wind Dir Waves Ship Positions

Cochise

Owner: Sause Bros, Coos Bay, OR. More information available from US FCC via Universal Licensing System and Coast Guard Vessel Documentation Center.

Last reported at 2015-Aug-30 17:33 UTC. Time now 2015-Aug-30 18:11 UTC.
Position N 37°46' W 122°23'.

Length 32 m; draft 4.8 m.

Type: Towing. MMSI: 367304990.

Date/timePositionNaut miles runAvg speedWind from/ knotsBaromVisibWave heightAir tempDewpointWater temp
2015-Aug-30 17:33N 37°46' W 122°23'0 0.0
2015-Aug-30 16:33N 37°46' W 122°23'0 0.0
2015-Aug-30 15:33N 37°46' W 122°23'0 0.0
2015-Aug-30 14:33N 37°46' W 122°23'1 1.0
2015-Aug-30 13:34N 37°47' W 122°23'9 8.9
2015-Aug-30 12:34N 37°56' W 122°26'10 9.9
2015-Aug-30 11:34N 38°03' W 122°17'7 0.4
2015-Aug-29 17:33N 38°02' W 122°08'6 6.1
2015-Aug-29 16:33N 38°04' W 122°16'8 7.6
2015-Aug-29 15:33N 38°00' W 122°24'6 6.2
2015-Aug-29 14:34N 37°54' W 122°23'1 1.1
2015-Aug-29 13:33N 37°55' W 122°22'0 0.0
2015-Aug-29 12:32N 37°55' W 122°22'0 0.0
2015-Aug-29 11:32N 37°55' W 122°22'0 0.0
2015-Aug-29 10:32N 37°55' W 122°22'0 0.0
2015-Aug-29 09:32N 37°55' W 122°22'0 0.0
2015-Aug-29 08:32N 37°55' W 122°22'0 0.0
2015-Aug-29 07:32N 37°55' W 122°22'0 0.0
2015-Aug-29 06:32N 37°55' W 122°22'0 0.0
2015-Aug-29 05:32N 37°55' W 122°22'0 0.0
2015-Aug-29 04:32N 37°55' W 122°22'0 0.0
2015-Aug-29 03:33N 37°55' W 122°22'0 0.0
2015-Aug-29 02:34N 37°55' W 122°22'0 0.0
2015-Aug-29 01:34N 37°55' W 122°22'0 0.0
2015-Aug-29 00:34N 37°55' W 122°22'0 0.0
2015-Aug-28 23:33N 37°55' W 122°22'0 0.0
2015-Aug-28 22:34N 37°55' W 122°22'0 0.0
2015-Aug-28 21:34N 37°55' W 122°22'0 0.0
2015-Aug-28 20:34N 37°55' W 122°22'0 0.0
2015-Aug-28 19:34N 37°55' W 122°22'0 0.0
2015-Aug-28 18:34N 37°55' W 122°22'0 0.0
2015-Aug-28 17:33N 37°55' W 122°22'0 0.0
2015-Aug-28 16:33N 37°55' W 122°22'0 0.0
2015-Aug-28 15:34N 37°55' W 122°22'0 0.0
2015-Aug-28 14:34N 37°55' W 122°22'0 0.0
2015-Aug-28 13:33N 37°55' W 122°22'0 0.0
2015-Aug-28 12:34N 37°55' W 122°22'0 0.0
2015-Aug-28 11:33N 37°55' W 122°22'0 0.0
2015-Aug-28 10:33N 37°55' W 122°22'0 0.0
2015-Aug-28 09:34N 37°55' W 122°22'0 0.0
2015-Aug-28 08:34N 37°55' W 122°22'0 0.0
2015-Aug-28 07:34N 37°55' W 122°22'0 0.0
2015-Aug-28 06:33N 37°55' W 122°22'0 0.0
2015-Aug-28 05:34N 37°55' W 122°22'0 0.0
2015-Aug-28 04:34N 37°55' W 122°22'0 0.0
2015-Aug-28 03:33N 37°55' W 122°22'0 0.0
2015-Aug-28 02:33N 37°55' W 122°22'0 0.0
2015-Aug-28 01:34N 37°55' W 122°22'0 0.0
2015-Aug-28 00:34N 37°55' W 122°22'0 0.0
2015-Aug-27 23:34N 37°55' W 122°22'0 0.0
2015-Aug-27 22:34N 37°55' W 122°22'1 0.7
2015-Aug-27 21:34N 37°54' W 122°22'3 2.9
2015-Aug-27 20:31N 37°55' W 122°26'0 0.1
2015-Aug-27 19:32N 37°55' W 122°26'1 0.8
2015-Aug-27 18:31N 37°55' W 122°25'1 0.7
2015-Aug-27 17:31N 37°55' W 122°26'1 0.9
2015-Aug-27 16:33N 37°55' W 122°25'0 0.0
2015-Aug-27 15:33N 37°55' W 122°25'0 0.0
2015-Aug-27 14:33N 37°55' W 122°25'0 0.0
2015-Aug-27 13:33N 37°55' W 122°25'0 0.0
2015-Aug-27 12:33N 37°55' W 122°25'0 0.0
2015-Aug-27 11:33N 37°55' W 122°25'0 0.0
2015-Aug-27 10:33N 37°55' W 122°25'0 0.0
2015-Aug-27 09:33N 37°55' W 122°25'0 0.0
2015-Aug-27 08:33N 37°55' W 122°25'0 0.0
2015-Aug-27 07:33N 37°55' W 122°25'0 0.0
2015-Aug-27 06:33N 37°55' W 122°25'0 0.0
2015-Aug-27 05:30N 37°55' W 122°25'0 0.0
2015-Aug-27 04:33N 37°55' W 122°25'0 0.0
2015-Aug-27 03:33N 37°55' W 122°25'0 0.0
2015-Aug-27 02:30N 37°55' W 122°25'0 0.0
2015-Aug-27 01:33N 37°55' W 122°25'0 0.0
2015-Aug-27 00:33N 37°55' W 122°25'0 0.0
2015-Aug-26 23:33N 37°55' W 122°25'0 0.0
2015-Aug-26 22:27N 37°55' W 122°25'0 0.0
2015-Aug-26 21:33N 37°55' W 122°25'0 0.0
2015-Aug-26 20:33N 37°55' W 122°25'0 0.0
2015-Aug-26 19:33N 37°55' W 122°25'1 1.2
2015-Aug-26 18:33N 37°55' W 122°26'0 0.1
2015-Aug-26 17:29N 37°55' W 122°26'0 0.0
2015-Aug-26 16:32N 37°55' W 122°26'0 0.0
2015-Aug-26 15:32N 37°55' W 122°26'0 0.0
2015-Aug-26 13:32N 37°55' W 122°26'0 0.1
2015-Aug-26 12:32N 37°55' W 122°26'0 0.0
2015-Aug-26 11:32N 37°55' W 122°26'0 0.0
2015-Aug-26 10:32N 37°55' W 122°26'0 0.0
2015-Aug-26 09:32N 37°55' W 122°26'6 6.2
2015-Aug-26 08:33N 38°01' W 122°23'1110.4
2015-Aug-26 07:32N 38°02' W 122°10'3 3.2
2015-Aug-26 06:33N 38°03' W 122°06'0 0.0
2015-Aug-26 05:30N 38°03' W 122°06'0 0.0
2015-Aug-26 04:30N 38°03' W 122°06'0 0.0
2015-Aug-26 03:24N 38°03' W 122°06'0 0.0
2015-Aug-25 23:30N 38°03' W 122°06'0 0.0
2015-Aug-25 13:30N 38°03' W 122°06'0 0.0
2015-Aug-25 12:27N 38°03' W 122°06'0 0.0
2015-Aug-25 09:21N 38°03' W 122°06'0 0.0
2015-Aug-25 08:27N 38°03' W 122°06'0 0.0
2015-Aug-25 07:24N 38°03' W 122°06'0 0.4
2015-Aug-25 06:33N 38°03' W 122°07'4 3.6
2015-Aug-25 05:33N 38°03' W 122°11'7 7.2
2015-Aug-25 04:33N 38°03' W 122°20'7 6.9
2015-Aug-25 03:33N 37°57' W 122°26'2 2.1
2015-Aug-25 02:33N 37°55' W 122°26'0 0.0
2015-Aug-25 01:33N 37°55' W 122°26'0 0.0
2015-Aug-25 00:33N 37°55' W 122°26'0 0.0
2015-Aug-24 23:33N 37°55' W 122°26'0 0.0
2015-Aug-24 22:33N 37°55' W 122°26'0 0.1
2015-Aug-24 21:33N 37°55' W 122°26'0 0.0
2015-Aug-24 20:33N 37°55' W 122°26'0 0.0
2015-Aug-24 19:33N 37°55' W 122°26'0 0.1
2015-Aug-24 18:33N 37°55' W 122°26'0 0.0
2015-Aug-24 17:33N 37°55' W 122°26'0 0.0
2015-Aug-24 16:33N 37°55' W 122°26'0 0.0
2015-Aug-24 15:33N 37°55' W 122°26'0 0.0
2015-Aug-24 14:33N 37°55' W 122°26'0 0.0
2015-Aug-24 13:30N 37°55' W 122°26'0 0.0
2015-Aug-24 12:33N 37°55' W 122°26'0 0.0
2015-Aug-24 11:33N 37°55' W 122°26'0 0.0
2015-Aug-24 10:33N 37°55' W 122°26'0 0.0
2015-Aug-24 09:33N 37°55' W 122°26'0 0.0
2015-Aug-24 08:33N 37°55' W 122°26'0 0.0
2015-Aug-24 07:33N 37°55' W 122°26'0 0.0
2015-Aug-24 06:33N 37°55' W 122°26'0 0.1
2015-Aug-24 05:33N 37°55' W 122°26'0 0.0
2015-Aug-24 04:33N 37°55' W 122°26'0 0.1
2015-Aug-24 03:33N 37°55' W 122°26'0 0.0
2015-Aug-24 02:33N 37°55' W 122°26'0 0.0
2015-Aug-24 01:33N 37°55' W 122°26'0 0.0
2015-Aug-24 00:33N 37°55' W 122°26'0 0.0
2015-Aug-23 23:33N 37°55' W 122°26'0 0.0
2015-Aug-23 22:33N 37°55' W 122°26'0 0.0
2015-Aug-23 21:33N 37°55' W 122°26'0 0.0
2015-Aug-23 20:30N 37°55' W 122°26'0 0.1
2015-Aug-23 19:33N 37°55' W 122°26'0 0.0
2015-Aug-23 18:30N 37°55' W 122°26'0 0.0
2015-Aug-23 17:33N 37°55' W 122°26'0 0.0
2015-Aug-23 16:30N 37°55' W 122°26'0 0.0
2015-Aug-23 15:33N 37°55' W 122°26'1 1.2
2015-Aug-23 14:33N 37°55' W 122°25'0 0.3
2015-Aug-23 13:33N 37°55' W 122°25'0 0.0
2015-Aug-23 12:33N 37°55' W 122°25'0 0.0
2015-Aug-23 11:32N 37°55' W 122°25'0 0.0
2015-Aug-23 10:33N 37°55' W 122°25'0 0.0
2015-Aug-23 09:26N 37°55' W 122°25'0 0.0
2015-Aug-23 08:32N 37°55' W 122°25'0 0.0
2015-Aug-23 07:32N 37°55' W 122°25'0 0.0
2015-Aug-23 06:32N 37°55' W 122°25'0 0.0
2015-Aug-23 05:33N 37°55' W 122°25'0 0.0
2015-Aug-23 04:29N 37°55' W 122°25'0 0.0
2015-Aug-23 03:32N 37°55' W 122°25'0 0.0
2015-Aug-23 02:32N 37°55' W 122°25'0 0.0
2015-Aug-23 01:32N 37°55' W 122°25'0 0.0
2015-Aug-23 00:23N 37°55' W 122°25'0 0.0
2015-Aug-22 23:32N 37°55' W 122°25'0 0.0
2015-Aug-22 22:23N 37°55' W 122°25'0 0.0
2015-Aug-22 21:32N 37°55' W 122°25'0 0.3
2015-Aug-22 20:33N 37°55' W 122°25'6 5.7
2015-Aug-22 19:33N 37°50' W 122°23'3 3.4
2015-Aug-22 18:33N 37°46' W 122°23'0 0.0
2015-Aug-22 17:32N 37°46' W 122°23'0 0.0
2015-Aug-22 16:32N 37°46' W 122°23'0 0.0
2015-Aug-22 15:32N 37°46' W 122°23'0 0.0
2015-Aug-22 14:32N 37°46' W 122°23'0 0.0
2015-Aug-22 13:32N 37°46' W 122°23'0 0.0
2015-Aug-22 12:32N 37°46' W 122°23'0 0.0
2015-Aug-22 11:32N 37°46' W 122°23'0 0.0
2015-Aug-22 10:32N 37°46' W 122°23'0 0.0
2015-Aug-22 09:32N 37°46' W 122°23'0 0.0
2015-Aug-22 08:32N 37°46' W 122°23'0 0.0
2015-Aug-22 07:32N 37°46' W 122°23'0 0.0
2015-Aug-22 06:32N 37°46' W 122°23'0 0.0
2015-Aug-22 05:32N 37°46' W 122°23'0 0.0
2015-Aug-22 04:32N 37°46' W 122°23'0 0.0
2015-Aug-22 03:32N 37°46' W 122°23'0 0.0
2015-Aug-22 02:32N 37°46' W 122°23'0 0.0
2015-Aug-22 01:32N 37°46' W 122°23'0 0.0
2015-Aug-22 00:31N 37°46' W 122°23'0 0.0
2015-Aug-21 23:31N 37°46' W 122°23'0 0.0
2015-Aug-21 22:32N 37°46' W 122°23'0 0.0
2015-Aug-21 21:32N 37°46' W 122°23'0 0.0
2015-Aug-21 20:32N 37°46' W 122°23'0 0.0
2015-Aug-21 19:31N 37°46' W 122°23'0 0.0
2015-Aug-21 18:31N 37°46' W 122°23'0 0.0
2015-Aug-21 17:31N 37°46' W 122°23'0 0.0
2015-Aug-21 16:32N 37°46' W 122°23'0 0.0
2015-Aug-21 15:32N 37°46' W 122°23'0 0.0
2015-Aug-21 14:34N 37°46' W 122°23'4 4.0
2015-Aug-21 13:34N 37°50' W 122°24'10 9.7
2015-Aug-21 12:33N 38°00' W 122°24'9 9.3
2015-Aug-21 11:34N 38°04' W 122°14'  

Dump ship's entire track history